PWSweather.com
Personal Weather Stations
Station Observations
KVAGLENALL
West Henrico, Glen Allen, VA 23060-6503

West HenricoGlen Allen, VA 23060-6503

Lat: 37.6554, Lon: -77.5693

Elevation: 273

Station Type: Davis Vantage Pro II

www.glenallenweather.com

High Low Average
Temperature 37.5°F3.1°C 21.8°F-5.7°C 28.9°F-1.7°C
Dew Point 21.5°F-5.8°C 15.6°F-9.1°C 18.5°F-7.5°C
Winds 7.0 mph 11.3 kmh Calm Calm 2.0 mph E3.2 kmh E
Wind Gusts 11.1 mph17.9 kmh -- 5.0 mph8.0 kmh
Humidity 87% 41% 67%
Pressure 30.48 in1032.2 mb 30.30 in1026.1 mb -
Precipitation 0.00 in0.0 mm - -
Hour Temp Dew Point Humidity Winds Wind Gusts Pressure Precip Precip Rate Daily Precip Total
12:30 AM 27.2°F-2.7°C 20.7°F-6.3°C 76% 4.0 mph N6.4 kmh N 9.1 mph14.6 kmh 30.30 in1026.1 mb 0.00 in0.0 mm 0.00 in0.0 mm 0.00 in0.0 mm
01:30 AM 27.0°F-2.8°C 20.2°F-6.6°C 75% 3.0 mph NNE4.8 kmh NNE 10.1 mph16.3 kmh 30.30 in1026.1 mb 0.00 in0.0 mm 0.00 in0.0 mm 0.00 in0.0 mm
02:30 AM 25.9°F-3.4°C 18.8°F-7.3°C 74% 7.0 mph NNE11.3 kmh NNE 10.1 mph16.3 kmh 30.32 in1026.8 mb 0.00 in0.0 mm 0.00 in0.0 mm 0.00 in0.0 mm
03:30 AM 25.2°F-3.8°C 17.8°F-7.9°C 73% 5.0 mph N8.0 kmh N 9.1 mph14.6 kmh 30.33 in1027.1 mb 0.00 in0.0 mm 0.00 in0.0 mm 0.00 in0.0 mm
04:30 AM 24.1°F-4.4°C 17.7°F-7.9°C 76% 4.0 mph NNW6.4 kmh NNW 5.1 mph8.2 kmh 30.36 in1028.1 mb 0.00 in0.0 mm 0.00 in0.0 mm 0.00 in0.0 mm
05:30 AM 22.6°F-5.2°C 17.7°F-7.9°C 81% 3.0 mph NNE4.8 kmh NNE 5.1 mph8.2 kmh 30.38 in1028.8 mb 0.00 in0.0 mm 0.00 in0.0 mm 0.00 in0.0 mm
06:30 AM 21.8°F-5.7°C 17.5°F-8.1°C 83% 2.0 mph N3.2 kmh N 5.1 mph8.2 kmh 30.41 in1029.8 mb 0.00 in0.0 mm 0.00 in0.0 mm 0.00 in0.0 mm
07:30 AM 23.7°F-4.6°C 17.0°F-8.3°C 75% 4.0 mph NNE6.4 kmh NNE 5.1 mph8.2 kmh 30.43 in1030.5 mb 0.00 in0.0 mm 0.00 in0.0 mm 0.00 in0.0 mm
08:30 AM 28.4°F-2.0°C 17.8°F-7.9°C 64% 3.0 mph N4.8 kmh N 9.1 mph14.6 kmh 30.45 in1031.2 mb 0.00 in0.0 mm 0.00 in0.0 mm 0.00 in0.0 mm
09:30 AM 31.9°F-0.1°C 17.5°F-8.1°C 55% 3.0 mph NNW4.8 kmh NNW 11.1 mph17.9 kmh 30.47 in1031.8 mb 0.00 in0.0 mm 0.00 in0.0 mm 0.00 in0.0 mm
10:30 AM 34.3°F1.3°C 18.9°F-7.3°C 53% 2.0 mph NE3.2 kmh NE 4.0 mph6.4 kmh 30.48 in1032.2 mb 0.00 in0.0 mm 0.00 in0.0 mm 0.00 in0.0 mm
11:30 AM 35.4°F1.9°C 17.7°F-7.9°C 48% 1.0 mph NNE1.6 kmh NNE 8.1 mph13.0 kmh 30.47 in1031.8 mb 0.00 in0.0 mm 0.00 in0.0 mm 0.00 in0.0 mm
12:30 PM 36.4°F2.4°C 17.6°F-8.0°C 46% 3.0 mph E4.8 kmh E 3.0 mph4.8 kmh 30.44 in1030.8 mb 0.00 in0.0 mm 0.00 in0.0 mm 0.00 in0.0 mm
01:30 PM 37.5°F3.1°C 15.9°F-8.9°C 41% 1.0 mph ESE1.6 kmh ESE 3.0 mph4.8 kmh 30.43 in1030.5 mb 0.00 in0.0 mm 0.00 in0.0 mm 0.00 in0.0 mm
02:30 PM 37.2°F2.9°C 15.7°F-9.1°C 41% Calm Calm 4.0 mph6.4 kmh 30.41 in1029.8 mb 0.00 in0.0 mm 0.00 in0.0 mm 0.00 in0.0 mm
03:30 PM 35.9°F2.2°C 15.6°F-9.1°C 43% 3.0 mph NNE4.8 kmh NNE 3.0 mph4.8 kmh 30.41 in1029.8 mb 0.00 in0.0 mm 0.00 in0.0 mm 0.00 in0.0 mm
04:30 PM 33.0°F0.6°C 17.7°F-7.9°C 53% Calm Calm -- 30.40 in1029.5 mb 0.00 in0.0 mm 0.00 in0.0 mm 0.00 in0.0 mm
05:30 PM 30.8°F-0.7°C 18.9°F-7.3°C 61% Calm Calm -- 30.41 in1029.8 mb 0.00 in0.0 mm 0.00 in0.0 mm 0.00 in0.0 mm
06:30 PM 28.2°F-2.1°C 19.7°F-6.8°C 70% Calm Calm -- 30.42 in1030.1 mb 0.00 in0.0 mm 0.00 in0.0 mm 0.00 in0.0 mm
07:30 PM 27.4°F-2.6°C 20.6°F-6.3°C 75% Calm Calm -- 30.43 in1030.5 mb 0.00 in0.0 mm 0.00 in0.0 mm 0.00 in0.0 mm
08:30 PM 25.8°F-3.4°C 20.5°F-6.4°C 80% Calm Calm -- 30.45 in1031.2 mb 0.00 in0.0 mm 0.00 in0.0 mm 0.00 in0.0 mm
09:30 PM 25.6°F-3.6°C 21.5°F-5.8°C 84% 1.0 mph NNE1.6 kmh NNE 2.0 mph3.2 kmh 30.46 in1031.5 mb 0.00 in0.0 mm 0.00 in0.0 mm 0.00 in0.0 mm
10:30 PM 24.5°F-4.2°C 21.2°F-6.0°C 87% Calm Calm 1.0 mph1.6 kmh 30.46 in1031.5 mb 0.00 in0.0 mm 0.00 in0.0 mm 0.00 in0.0 mm
11:30 PM 24.4°F-4.2°C 20.6°F-6.3°C 85% 1.0 mph S1.6 kmh S 3.0 mph4.8 kmh 30.44 in1030.8 mb 0.00 in0.0 mm 0.00 in0.0 mm 0.00 in0.0 mm